Time;durP1;ratioP1;P1;durP2;ratioP2;P2;SDS_P1;SDS_P2;PMS_P1;PMS_P2;Temp;Humidity;BMP_temperature;BMP_pressure;BME280_temperature;BME280_humidity;BME280_pressure;Samples;Min_cycle;Max_cycle;Signal;HPM_P1;HPM_P2
2022/04/01 00:01:48;;;;;;;8.15;4.30;;;2.20;99.90;;;;;;5153018;27;20030;-48
2022/04/01 00:04:14;;;;;;;18.92;4.63;;;2.10;99.90;;;;;;5152637;27;20011;-46
2022/04/01 00:06:39;;;;;;;9.68;3.90;;;2.00;99.90;;;;;;5151318;27;20014;-46
2022/04/01 00:09:05;;;;;;;11.10;4.38;;;2.00;99.90;;;;;;5152226;27;20027;-46
2022/04/01 00:11:31;;;;;;;13.88;4.65;;;1.90;99.90;;;;;;5152548;27;20054;-47
2022/04/01 00:13:56;;;;;;;8.65;4.47;;;1.90;99.90;;;;;;5152397;27;20494;-48
2022/04/01 00:16:22;;;;;;;11.13;4.57;;;1.90;99.90;;;;;;5152478;27;20029;-46
2022/04/01 00:18:47;;;;;;;20.85;5.53;;;1.80;99.90;;;;;;5151733;27;20551;-46
2022/04/01 00:21:13;;;;;;;9.98;4.68;;;1.80;99.90;;;;;;5152459;27;20531;-49
2022/04/01 00:23:38;;;;;;;10.48;5.80;;;1.70;99.90;;;;;;5152334;27;20046;-48
2022/04/01 00:26:04;;;;;;;15.07;5.80;;;1.70;99.90;;;;;;5152498;27;20490;-48
2022/04/01 00:28:29;;;;;;;11.93;5.15;;;1.70;99.90;;;;;;5140672;27;20084;-47
2022/04/01 00:30:55;;;;;;;7.63;4.40;;;1.60;99.90;;;;;;5151389;27;20051;-47
2022/04/01 00:33:21;;;;;;;11.88;4.88;;;1.60;99.90;;;;;;5152321;27;20027;-46
2022/04/01 00:35:46;;;;;;;9.07;4.57;;;1.60;99.90;;;;;;5152036;27;20034;-46
2022/04/01 00:38:13;;;;;;;9.65;4.97;;;1.50;99.90;;;;;;5152120;27;20038;-46
2022/04/01 00:40:39;;;;;;;10.93;6.00;;;1.40;99.90;;;;;;5151192;27;20113;-47
2022/04/01 00:43:05;;;;;;;11.80;5.13;;;1.50;99.90;;;;;;5151725;27;20479;-46
2022/04/01 00:45:31;;;;;;;10.27;5.45;;;1.50;99.90;;;;;;5152084;27;20030;-48
2022/04/01 00:48:01;;;;;;;12.85;5.25;;;1.40;99.90;;;;;;5151822;27;20179;-46
2022/04/01 00:50:31;;;;;;;12.45;5.70;;;1.40;99.90;;;;;;5151338;27;20022;-47
2022/04/01 00:52:57;;;;;;;10.18;5.88;;;1.40;99.90;;;;;;5150565;27;20522;-47
2022/04/01 00:55:23;;;;;;;8.45;5.45;;;1.40;99.90;;;;;;5151730;27;20026;-47
2022/04/01 00:57:49;;;;;;;12.95;5.82;;;1.40;99.90;;;;;;5142891;27;20536;-46
2022/04/01 01:00:15;;;;;;;11.48;5.63;;;1.40;99.90;;;;;;5147461;27;20570;-47
2022/04/01 01:02:40;;;;;;;9.40;5.00;;;1.40;99.90;;;;;;5151406;27;20063;-46
2022/04/01 01:05:06;;;;;;;12.15;5.57;;;1.30;99.90;;;;;;5151692;27;20022;-46
2022/04/01 01:07:33;;;;;;;13.00;5.70;;;1.20;99.90;;;;;;5151675;27;20118;-47
2022/04/01 01:09:59;;;;;;;11.38;5.82;;;1.30;99.90;;;;;;5150869;27;20033;-47
2022/04/01 01:12:26;;;;;;;10.82;5.90;;;1.30;99.90;;;;;;5149840;27;20019;-48
2022/04/01 01:14:51;;;;;;;9.80;5.40;;;1.30;99.90;;;;;;5149976;27;20464;-47
2022/04/01 01:17:17;;;;;;;9.68;5.95;;;1.20;99.90;;;;;;5149765;27;20121;-46
2022/04/01 01:19:45;;;;;;;11.75;5.72;;;1.20;99.90;;;;;;5150595;27;20023;-47
2022/04/01 01:22:12;;;;;;;10.95;5.43;;;1.20;99.90;;;;;;5151222;27;20014;-47
2022/04/01 01:24:41;;;;;;;12.82;6.10;;;1.20;99.90;;;;;;5151161;27;20023;-46
2022/04/01 01:27:08;;;;;;;14.02;6.53;;;1.20;99.90;;;;;;5147274;27;20099;-48
2022/04/01 01:29:37;;;;;;;10.20;5.85;;;1.30;99.90;;;;;;5141574;27;20022;-46
2022/04/01 01:32:05;;;;;;;10.50;6.55;;;1.20;99.90;;;;;;5132697;27;20030;-47
2022/04/01 01:34:32;;;;;;;9.20;5.38;;;1.20;99.90;;;;;;5150836;27;20022;-47
2022/04/01 01:36:58;;;;;;;10.80;5.25;;;1.20;99.90;;;;;;5150865;27;20507;-48
2022/04/01 01:39:24;;;;;;;12.60;5.88;;;1.20;99.90;;;;;;5150313;27;20083;-46
2022/04/01 01:41:51;;;;;;;13.80;6.00;;;1.20;99.90;;;;;;5149646;27;20030;-48
2022/04/01 01:44:21;;;;;;;14.48;6.03;;;1.20;99.90;;;;;;5149439;27;20016;-46
2022/04/01 01:46:47;;;;;;;13.13;6.35;;;1.20;99.90;;;;;;5150931;27;20046;-47
2022/04/01 01:49:13;;;;;;;14.27;6.88;;;1.20;99.90;;;;;;5149916;27;20026;-48
2022/04/01 01:57:09;;;;;;;11.35;5.57;;;1.20;99.90;;;;;;5147274;27;20115;-48
2022/04/01 01:59:35;;;;;;;13.27;6.40;;;1.10;99.90;;;;;;5141317;27;20033;-46
2022/04/01 02:02:03;;;;;;;11.90;6.53;;;1.10;99.90;;;;;;5150313;27;20122;-49
2022/04/01 02:04:29;;;;;;;10.23;5.53;;;1.20;99.90;;;;;;5150472;27;20011;-47
2022/04/01 02:06:54;;;;;;;12.18;6.32;;;1.10;99.90;;;;;;5150403;27;20636;-46
2022/04/01 02:09:20;;;;;;;14.32;7.00;;;1.10;99.90;;;;;;5133110;27;20084;-47
2022/04/01 02:11:46;;;;;;;9.55;5.80;;;1.10;99.90;;;;;;5119530;27;20187;-47
2022/04/01 02:14:12;;;;;;;11.27;6.45;;;1.20;99.90;;;;;;5118738;27;20041;-48
2022/04/01 02:16:58;;;;;;;12.80;6.85;;;1.20;99.90;;;;;;5121228;27;20102;-46
2022/04/01 02:19:23;;;;;;;10.23;6.43;;;1.20;99.90;;;;;;5097379;28;20030;-46
2022/04/01 02:21:51;;;;;;;11.55;6.80;;;1.20;99.90;;;;;;5116148;28;20502;-46
2022/04/01 02:24:18;;;;;;;12.25;6.78;;;1.20;99.90;;;;;;5119717;28;20022;-46
2022/04/01 02:26:47;;;;;;;14.23;7.63;;;1.10;99.90;;;;;;5122119;27;20022;-46
2022/04/01 02:29:13;;;;;;;17.15;7.40;;;1.10;99.90;;;;;;5125150;27;20008;-47
2022/04/01 02:31:39;;;;;;;12.93;7.82;;;1.10;99.90;;;;;;5133638;27;20480;-47
2022/04/01 02:34:05;;;;;;;12.73;8.68;;;1.00;99.90;;;;;;5117464;28;20026;-45
2022/04/01 02:36:30;;;;;;;12.52;7.47;;;1.00;99.90;;;;;;5117128;27;20024;-47
2022/04/01 02:38:56;;;;;;;12.27;7.82;;;1.00;99.90;;;;;;5117957;27;20043;-45
2022/04/01 02:41:21;;;;;;;17.10;8.55;;;1.00;99.90;;;;;;5117489;28;20016;-46
2022/04/01 02:43:48;;;;;;;11.98;7.90;;;1.00;99.90;;;;;;5119077;28;20144;-46
2022/04/01 02:46:13;;;;;;;13.55;8.45;;;1.00;99.90;;;;;;5117345;28;20020;-47
2022/04/01 02:48:39;;;;;;;15.30;7.78;;;1.00;99.90;;;;;;5120100;28;20027;-46
2022/04/01 02:51:04;;;;;;;15.23;8.32;;;0.90;99.90;;;;;;5118794;27;20027;-48
2022/04/01 02:53:30;;;;;;;12.52;7.95;;;0.90;99.90;;;;;;5121800;27;20019;-47
2022/04/01 02:55:56;;;;;;;17.67;9.65;;;0.90;99.90;;;;;;5120964;27;20023;-46
2022/04/01 02:58:21;;;;;;;12.55;9.00;;;0.90;99.90;;;;;;5126991;27;20051;-47
2022/04/01 03:00:47;;;;;;;16.08;9.32;;;0.90;99.90;;;;;;5129442;27;20031;-46
2022/04/01 03:03:13;;;;;;;16.90;8.63;;;0.90;99.90;;;;;;5123460;27;20103;-46
2022/04/01 03:05:40;;;;;;;15.90;8.75;;;0.90;99.90;;;;;;5116814;27;20711;-46
2022/04/01 03:08:09;;;;;;;18.63;8.57;;;0.90;99.90;;;;;;5112701;28;20051;-47
2022/04/01 03:10:36;;;;;;;14.13;8.35;;;0.90;99.90;;;;;;5112094;28;20440;-50
2022/04/01 03:13:03;;;;;;;13.25;7.82;;;0.90;99.90;;;;;;5112527;28;20476;-47
2022/04/01 03:15:29;;;;;;;13.90;7.72;;;0.90;99.90;;;;;;5112551;28;20289;-46
2022/04/01 03:17:58;;;;;;;12.77;7.70;;;0.90;99.90;;;;;;5112231;28;20549;-47
2022/04/01 03:20:25;;;;;;;11.70;7.40;;;0.80;99.90;;;;;;5111760;28;20080;-48
2022/04/01 03:22:51;;;;;;;14.07;7.10;;;0.80;99.90;;;;;;5112105;28;20521;-47
2022/04/01 03:25:19;;;;;;;13.25;7.25;;;0.80;99.90;;;;;;5112399;28;20055;-50
2022/04/01 03:27:48;;;;;;;14.95;7.30;;;0.80;99.90;;;;;;5120204;27;20019;-48
2022/04/01 03:30:16;;;;;;;11.45;7.10;;;0.90;99.90;;;;;;5144194;27;20026;-55
2022/04/01 03:32:43;;;;;;;16.55;7.40;;;0.90;99.90;;;;;;5123324;27;20023;-49
2022/04/01 03:35:13;;;;;;;12.80;7.43;;;0.90;99.90;;;;;;5132929;27;20027;-48
2022/04/01 03:37:38;;;;;;;13.80;7.40;;;0.80;99.90;;;;;;5124056;27;20034;-49
2022/04/01 03:40:05;;;;;;;12.57;7.28;;;0.80;99.90;;;;;;5117397;27;20270;-47
2022/04/01 03:42:32;;;;;;;13.20;6.93;;;0.80;99.90;;;;;;5111221;28;20056;-46
2022/04/01 03:45:03;;;;;;;15.00;7.57;;;0.70;99.90;;;;;;5111574;28;20031;-46
2022/04/01 03:47:41;;;;;;;18.92;7.55;;;0.70;99.90;;;;;;5112006;28;20104;-46
2022/04/01 03:50:12;;;;;;;13.98;7.15;;;0.70;99.90;;;;;;5111172;28;20020;-47
2022/04/01 03:52:38;;;;;;;;;;;0.70;99.90;;;;;;5110847;28;20115;-47
2022/04/01 03:55:07;;;;;;;14.40;7.57;;;0.60;99.90;;;;;;5127431;27;19903;-47
2022/04/01 03:57:37;;;;;;;18.75;8.25;;;0.70;99.90;;;;;;5115654;27;20085;-49
2022/04/01 04:00:14;;;;;;;14.05;6.85;;;0.70;99.90;;;;;;5139460;27;20441;-47
2022/04/01 04:02:46;;;;;;;19.63;7.63;;;0.70;99.90;;;;;;5132183;27;20106;-48
2022/04/01 04:05:13;;;;;;;13.40;7.45;;;0.70;99.90;;;;;;5130929;27;20020;-47
2022/04/01 04:07:41;;;;;;;15.73;7.90;;;0.70;99.90;;;;;;5131929;27;20039;-46
2022/04/01 04:10:09;;;;;;;13.70;7.88;;;0.50;99.90;;;;;;5131398;27;20015;-46
2022/04/01 04:12:35;;;;;;;18.73;8.40;;;0.50;99.90;;;;;;5131701;27;20019;-46
2022/04/01 04:15:02;;;;;;;13.65;7.55;;;0.50;99.90;;;;;;5131839;27;20027;-45
2022/04/01 04:17:46;;;;;;;14.85;7.53;;;0.40;99.90;;;;;;5131651;27;20034;-45
2022/04/01 04:20:23;;;;;;;13.10;7.25;;;0.40;99.90;;;;;;5131245;27;20025;-45
2022/04/01 04:23:19;;;;;;;14.27;7.97;;;0.40;99.90;;;;;;5129906;27;20031;-45
2022/04/01 04:26:15;;;;;;;14.95;7.65;;;0.40;99.90;;;;;;5111468;28;20118;-46
2022/04/01 04:28:47;;;;;;;14.63;7.50;;;0.30;99.90;;;;;;5125518;27;20024;-45
2022/04/01 04:31:14;;;;;;;16.05;7.55;;;0.40;99.90;;;;;;5147672;27;20576;-47
2022/04/01 04:33:46;;;;;;;12.50;7.13;;;0.40;99.90;;;;;;5143903;27;20115;-46
2022/04/01 04:36:15;;;;;;;17.55;8.93;;;0.40;99.90;;;;;;5116348;27;20030;-49
2022/04/01 04:38:45;;;;;;;12.77;8.05;;;0.40;99.90;;;;;;5110289;28;20107;-46
2022/04/01 04:41:10;;;;;;;17.07;8.13;;;0.40;99.90;;;;;;5109604;28;20660;-46
2022/04/01 04:43:38;;;;;;;12.90;7.25;;;0.40;99.90;;;;;;5110995;28;20031;-45
2022/04/01 04:46:05;;;;;;;14.77;7.97;;;0.40;99.90;;;;;;5110777;28;20020;-46
2022/04/01 04:48:34;;;;;;;14.60;7.07;;;0.40;99.90;;;;;;5110493;28;20473;-47
2022/04/01 04:51:02;;;;;;;11.77;6.85;;;0.40;99.90;;;;;;5110547;28;20051;-46
2022/04/01 04:53:30;;;;;;;13.57;7.45;;;0.50;99.90;;;;;;5109282;28;20110;-46
2022/04/01 04:55:58;;;;;;;17.00;9.00;;;0.50;99.90;;;;;;5110372;28;20031;-46
2022/04/01 04:58:29;;;;;;;16.75;8.25;;;0.50;99.90;;;;;;5128158;27;20018;-46
2022/04/01 05:01:02;;;;;;;18.02;8.60;;;0.50;99.90;;;;;;5144325;27;20043;-46
2022/04/01 05:03:38;;;;;;;12.75;6.70;;;0.60;99.90;;;;;;5151665;27;20018;-46
2022/04/01 05:06:33;;;;;;;15.48;7.03;;;0.50;99.90;;;;;;5107352;28;20023;-48
2022/04/01 05:09:06;;;;;;;13.77;7.22;;;0.50;99.90;;;;;;5107028;28;20032;-46
2022/04/01 05:11:38;;;;;;;14.65;6.78;;;0.50;99.90;;;;;;5126021;27;20083;-46
2022/04/01 05:14:12;;;;;;;15.70;6.40;;;0.40;99.90;;;;;;5151221;27;20058;-48
2022/04/01 05:16:59;;;;;;;9.20;5.72;;;0.40;99.90;;;;;;5151057;27;20034;-46
2022/04/01 05:19:27;;;;;;;12.93;6.47;;;0.40;99.90;;;;;;5150468;27;20023;-46
2022/04/01 05:22:07;;;;;;;12.23;6.90;;;0.40;99.90;;;;;;5115666;27;20591;-46
2022/04/01 05:24:40;;;;;;;17.70;6.45;;;0.50;99.90;;;;;;5110034;28;20033;-46
2022/04/01 05:27:23;;;;;;;10.30;6.30;;;0.50;99.90;;;;;;5109602;28;20433;-47
2022/04/01 05:30:05;;;;;;;12.95;6.28;;;0.60;99.90;;;;;;5130882;27;20015;-46
2022/04/01 05:32:35;;;;;;;10.07;5.80;;;0.60;99.90;;;;;;5130349;27;20015;-47
2022/04/01 05:35:02;;;;;;;10.48;6.13;;;0.60;99.90;;;;;;5128875;27;20468;-46
2022/04/01 05:37:29;;;;;;;15.82;5.93;;;0.60;99.90;;;;;;5129747;27;20400;-46
2022/04/01 05:39:55;;;;;;;8.77;5.28;;;0.60;99.90;;;;;;5129717;27;20084;-46
2022/04/01 05:42:22;;;;;;;11.88;6.38;;;0.60;99.90;;;;;;5129633;27;20033;-45
2022/04/01 05:44:48;;;;;;;9.82;5.63;;;0.60;99.90;;;;;;5130210;27;20027;-46
2022/04/01 05:47:16;;;;;;;9.40;5.53;;;0.70;99.90;;;;;;5130425;27;20110;-47
2022/04/01 05:49:44;;;;;;;12.65;5.75;;;0.80;99.90;;;;;;5129328;27;20113;-45
2022/04/01 05:52:11;;;;;;;8.82;5.32;;;0.90;99.90;;;;;;5129668;27;20112;-45
2022/04/01 05:54:39;;;;;;;12.63;5.57;;;1.00;99.90;;;;;;5129990;27;20057;-45
2022/04/01 05:57:08;;;;;;;7.40;4.63;;;1.00;99.90;;;;;;5123881;27;20020;-46
2022/04/01 05:59:33;;;;;;;9.52;5.22;;;1.10;99.90;;;;;;5139212;27;20027;-48
2022/04/01 06:02:02;;;;;;;11.38;4.97;;;1.10;99.90;;;;;;5150639;27;20053;-46
2022/04/01 06:05:09;;;;;;;11.32;5.82;;;1.10;99.90;;;;;;5150327;27;20023;-45
2022/04/01 06:07:45;;;;;;;10.05;5.60;;;1.10;99.90;;;;;;5132312;27;20110;-45
2022/04/01 06:10:26;;;;;;;9.52;5.05;;;1.20;99.90;;;;;;5149816;27;20019;-46
2022/04/01 06:13:45;;;;;;;10.73;5.07;;;1.20;99.90;;;;;;5150317;27;20037;-46
2022/04/01 06:16:20;;;;;;;9.55;5.38;;;1.30;99.90;;;;;;5066179;28;20051;-46
2022/04/01 06:19:10;;;;;;;7.25;4.80;;;1.40;99.90;;;;;;5148074;27;20037;-47
2022/04/01 06:21:47;;;;;;;14.15;5.80;;;1.40;99.90;;;;;;5150761;27;20062;-46
2022/04/01 06:24:27;;;;;;;8.40;4.65;;;1.40;99.90;;;;;;5150687;27;20026;-45
2022/04/01 06:27:00;;;;;;;9.65;4.93;;;1.40;99.90;;;;;;5144257;27;20102;-45
2022/04/01 06:29:39;;;;;;;10.13;5.30;;;1.40;99.90;;;;;;5135223;27;20480;-46
2022/04/01 06:32:32;;;;;;;9.90;4.72;;;1.50;99.90;;;;;;5150222;27;20058;-46
2022/04/01 06:35:18;;;;;;;14.10;6.78;;;1.50;99.90;;;;;;5150195;27;20027;-48
2022/04/01 06:37:55;;;;;;;10.70;4.82;;;1.50;99.90;;;;;;5149061;27;20383;-46
2022/04/01 06:40:23;;;;;;;10.82;5.47;;;1.50;99.90;;;;;;5149428;27;20476;-49
2022/04/01 06:42:51;;;;;;;7.57;5.07;;;1.60;99.90;;;;;;5149867;27;20027;-46
2022/04/01 06:45:17;;;;;;;8.27;4.60;;;1.60;99.90;;;;;;5149761;27;20023;-46
2022/04/01 06:47:44;;;;;;;9.65;5.10;;;1.70;99.90;;;;;;5149797;27;20042;-48
2022/04/01 06:50:10;;;;;;;7.63;4.75;;;1.70;99.90;;;;;;5149086;27;20424;-46
2022/04/01 06:52:35;;;;;;;8.00;4.68;;;1.80;99.90;;;;;;5149650;27;20211;-46
2022/04/01 06:55:01;;;;;;;12.68;5.18;;;1.80;99.90;;;;;;5149465;27;20018;-47
2022/04/01 06:57:26;;;;;;;10.20;5.55;;;1.90;99.90;;;;;;5136439;27;20427;-49
2022/04/01 06:59:52;;;;;;;11.05;4.68;;;1.90;99.90;;;;;;5139169;27;20031;-48
2022/04/01 07:02:17;;;;;;;6.35;4.35;;;1.80;99.90;;;;;;5149663;27;20027;-45
2022/04/01 07:04:43;;;;;;;10.80;4.53;;;1.90;99.90;;;;;;5149798;27;20027;-47
2022/04/01 07:07:09;;;;;;;8.02;4.80;;;1.90;99.90;;;;;;5148622;27;20054;-46
2022/04/01 07:09:37;;;;;;;8.38;4.57;;;1.90;99.90;;;;;;5149083;27;20452;-48
2022/04/01 07:12:03;;;;;;;12.63;4.80;;;2.00;99.90;;;;;;5149643;27;20075;-46
2022/04/01 07:14:31;;;;;;;11.40;4.85;;;2.00;99.90;;;;;;5149998;27;20023;-47
2022/04/01 07:17:00;;;;;;;7.80;4.63;;;2.10;99.90;;;;;;5150120;27;20019;-46
2022/04/01 07:19:25;;;;;;;13.60;6.38;;;2.10;99.90;;;;;;5149490;27;20094;-48
2022/04/01 07:21:51;;;;;;;8.35;5.22;;;2.10;99.90;;;;;;5144290;27;20136;-49
2022/04/01 07:24:16;;;;;;;6.85;4.18;;;2.10;99.90;;;;;;5128041;27;20379;-51
2022/04/01 07:26:44;;;;;;;10.07;5.00;;;2.10;99.90;;;;;;5127617;28;20031;-46
2022/04/01 07:29:10;;;;;;;10.43;4.30;;;2.10;99.90;;;;;;5130920;27;20023;-45
2022/04/01 07:34:37;;;;;;;8.98;4.50;;;2.20;99.90;;;;;;5150001;27;20468;-46
2022/04/01 07:37:03;;;;;;;9.25;4.40;;;2.20;99.90;;;;;;5149662;27;20131;-49
2022/04/01 07:39:29;;;;;;;8.40;4.97;;;2.20;99.90;;;;;;5149093;27;20356;-46
2022/04/01 07:41:54;;;;;;;6.95;4.45;;;2.30;99.90;;;;;;5153302;27;20030;-46
2022/04/01 07:44:22;;;;;;;7.75;4.85;;;2.30;99.90;;;;;;5152945;27;20026;-46
2022/04/01 07:46:48;;;;;;;8.73;5.13;;;2.40;99.90;;;;;;5153495;27;20015;-48
2022/04/01 07:49:14;;;;;;;6.20;4.80;;;2.40;99.90;;;;;;5152494;27;20026;-46
2022/04/01 07:51:40;;;;;;;10.40;4.60;;;2.40;99.90;;;;;;5153157;27;20110;-50
2022/04/01 07:54:05;;;;;;;9.18;4.20;;;2.50;99.90;;;;;;5152933;27;20140;-45
2022/04/01 07:56:31;;;;;;;8.90;4.70;;;2.60;99.90;;;;;;5152822;27;20051;-46
2022/04/01 07:58:59;;;;;;;9.38;4.30;;;2.60;99.90;;;;;;5133955;27;20110;-46
2022/04/01 08:01:25;;;;;;;10.35;4.97;;;2.60;99.90;;;;;;5150934;27;20034;-47
2022/04/01 08:03:51;;;;;;;8.35;4.55;;;2.70;99.90;;;;;;5152862;27;20341;-48
2022/04/01 08:06:17;;;;;;;7.97;4.85;;;2.80;99.60;;;;;;5152988;27;20551;-46
2022/04/01 08:08:42;;;;;;;9.30;4.43;;;2.90;99.90;;;;;;5152576;27;20019;-46
2022/04/01 08:11:08;;;;;;;11.32;5.10;;;3.00;99.90;;;;;;5153015;27;20109;-48
2022/04/01 08:13:34;;;;;;;7.82;3.72;;;3.00;98.50;;;;;;5152552;27;20035;-45
2022/04/01 08:16:00;;;;;;;7.95;4.45;;;3.00;98.10;;;;;;5152687;27;20023;-46
2022/04/01 08:18:27;;;;;;;11.98;4.38;;;3.10;99.20;;;;;;5152385;27;20054;-46
2022/04/01 08:20:52;;;;;;;8.23;3.88;;;3.40;98.40;;;;;;5151870;27;20271;-46
2022/04/01 08:23:19;;;;;;;8.05;4.30;;;3.40;98.20;;;;;;5152572;27;20459;-46
2022/04/01 08:25:45;;;;;;;8.02;3.95;;;3.50;97.90;;;;;;5152644;27;20512;-45
2022/04/01 08:28:10;;;;;;;9.02;4.00;;;3.60;98.40;;;;;;5141079;27;20094;-46
2022/04/01 08:30:36;;;;;;;7.78;3.90;;;3.70;97.00;;;;;;5142920;27;20098;-46
2022/04/01 08:33:02;;;;;;;7.05;3.88;;;4.00;96.30;;;;;;5151036;27;20029;-46
2022/04/01 08:35:28;;;;;;;10.02;4.60;;;4.00;95.90;;;;;;5152486;27;20109;-47
2022/04/01 08:37:55;;;;;;;11.15;4.55;;;4.10;95.20;;;;;;5152160;27;20079;-46
2022/04/01 08:40:21;;;;;;;11.40;4.45;;;4.20;95.40;;;;;;5150196;27;20022;-49
2022/04/01 08:42:47;;;;;;;12.80;4.65;;;4.10;93.30;;;;;;5151763;27;20498;-45
2022/04/01 08:45:17;;;;;;;7.63;3.58;;;4.20;94.20;;;;;;5151998;27;20102;-48
2022/04/01 08:47:43;;;;;;;7.13;3.90;;;4.30;93.20;;;;;;5152120;27;20042;-47
2022/04/01 08:50:09;;;;;;;7.47;4.00;;;4.30;93.00;;;;;;5151413;27;20143;-45
2022/04/01 08:52:34;;;;;;;6.28;3.75;;;4.10;93.00;;;;;;5151753;27;20031;-46
2022/04/01 08:55:06;;;;;;;6.22;3.15;;;4.30;93.30;;;;;;5151948;27;20511;-46
2022/04/01 08:57:39;;;;;;;8.65;3.83;;;4.50;91.10;;;;;;5140078;27;20027;-46
2022/04/01 09:00:13;;;;;;;8.02;4.03;;;4.40;92.60;;;;;;5142314;27;20042;-47
2022/04/01 09:02:39;;;;;;;7.07;3.75;;;4.70;91.60;;;;;;5151876;27;20022;-46
2022/04/01 09:05:06;;;;;;;7.05;3.53;;;4.60;91.40;;;;;;5151861;27;20049;-45
2022/04/01 09:07:32;;;;;;;13.55;3.72;;;4.70;91.60;;;;;;5150322;27;20544;-46
2022/04/01 09:10:01;;;;;;;4.85;3.03;;;4.90;92.20;;;;;;5150885;27;20019;-45
2022/04/01 09:12:28;;;;;;;6.82;3.78;;;5.10;90.40;;;;;;5151136;27;20495;-46
2022/04/01 09:14:55;;;;;;;6.32;3.45;;;5.30;90.30;;;;;;5151408;27;20027;-46
2022/04/01 09:17:21;;;;;;;12.80;4.95;;;5.50;90.50;;;;;;5151325;27;20026;-46
2022/04/01 09:19:48;;;;;;;7.85;3.63;;;5.70;87.80;;;;;;5150695;27;20159;-45
2022/04/01 09:22:15;;;;;;;7.07;3.22;;;5.60;87.00;;;;;;5151155;27;20471;-46
2022/04/01 09:24:55;;;;;;;8.75;3.25;;;5.50;90.30;;;;;;5151162;27;20098;-45
2022/04/01 09:27:37;;;;;;;5.82;3.33;;;5.30;87.90;;;;;;5143185;27;20023;-46
2022/04/01 09:30:04;;;;;;;7.43;3.50;;;5.60;89.70;;;;;;5141893;27;20022;-46
2022/04/01 09:32:41;;;;;;;9.55;3.47;;;5.60;86.00;;;;;;5151353;27;20076;-47
2022/04/01 09:35:10;;;;;;;7.53;4.07;;;5.80;87.20;;;;;;5150898;27;20030;-46
2022/04/01 09:37:43;;;;;;;8.85;3.45;;;5.70;90.20;;;;;;5149895;27;20034;-46
2022/04/01 09:40:11;;;;;;;5.75;3.17;;;5.70;84.60;;;;;;5150692;27;20483;-47
2022/04/01 09:42:38;;;;;;;4.40;3.22;;;5.90;89.90;;;;;;5149573;27;20050;-45
2022/04/01 09:45:04;;;;;;;7.30;3.83;;;6.00;90.40;;;;;;5151443;27;20036;-48
2022/04/01 09:47:39;;;;;;;7.28;3.75;;;5.90;87.40;;;;;;5151230;27;20360;-48
2022/04/01 09:50:13;;;;;;;6.65;4.00;;;5.70;83.90;;;;;;5149082;27;20014;-46
2022/04/01 09:52:40;;;;;;;8.00;3.38;;;5.70;88.90;;;;;;5151075;27;20275;-45
2022/04/01 09:55:07;;;;;;;8.80;3.20;;;5.50;87.30;;;;;;5150938;27;20023;-46
2022/04/01 09:57:34;;;;;;;5.97;3.50;;;5.60;88.00;;;;;;5140223;27;20027;-45
2022/04/01 10:00:00;;;;;;;11.50;2.95;;;5.70;83.50;;;;;;5141244;27;20486;-47
2022/04/01 10:02:26;;;;;;;6.43;3.22;;;5.80;83.60;;;;;;5149785;27;20027;-46
2022/04/01 10:04:53;;;;;;;7.65;3.45;;;5.60;79.90;;;;;;5150759;27;20159;-48
2022/04/01 10:07:20;;;;;;;9.52;3.88;;;5.70;77.70;;;;;;5150547;27;20019;-45
2022/04/01 10:09:48;;;;;;;7.15;3.97;;;5.80;82.30;;;;;;5150148;27;20102;-46
2022/04/01 10:12:15;;;;;;;5.32;3.03;;;5.90;80.10;;;;;;5148878;27;20031;-47
2022/04/01 10:14:42;;;;;;;16.27;3.72;;;6.10;81.20;;;;;;5150670;27;20046;-47
2022/04/01 10:17:10;;;;;;;8.65;3.35;;;6.10;79.60;;;;;;5150434;27;20037;-46
2022/04/01 10:19:39;;;;;;;10.77;3.25;;;6.00;79.70;;;;;;5149689;27;20018;-46
2022/04/01 10:22:06;;;;;;;4.10;2.88;;;5.90;76.00;;;;;;5150225;27;20019;-49
2022/04/01 10:24:54;;;;;;;7.68;2.70;;;6.00;80.20;;;;;;5150311;27;20034;-46
2022/04/01 10:27:29;;;;;;;10.05;4.07;;;6.00;77.80;;;;;;5139403;27;20023;-46
2022/04/01 10:29:56;;;;;;;7.20;2.85;;;6.10;77.90;;;;;;5141010;27;20035;-46
2022/04/01 10:32:27;;;;;;;11.57;4.00;;;6.20;79.70;;;;;;5150114;27;20061;-45
2022/04/01 10:34:56;;;;;;;14.82;4.03;;;6.50;79.50;;;;;;5146847;27;20023;-46
2022/04/01 10:37:23;;;;;;;16.08;3.90;;;6.80;76.40;;;;;;5149701;27;20049;-45
2022/04/01 10:40:16;;;;;;;4.90;3.03;;;6.70;72.90;;;;;;5149112;27;20022;-46
2022/04/01 10:42:42;;;;;;;5.22;2.70;;;6.80;73.50;;;;;;5141447;27;20058;-45
2022/04/01 10:45:17;;;;;;;9.52;3.25;;;7.00;70.70;;;;;;5129165;27;20230;-45
2022/04/01 10:53:45;;;;;;;6.28;2.90;;;6.90;68.30;;;;;;5129810;28;20349;-45
2022/04/01 10:56:23;;;;;;;4.65;2.67;;;6.80;69.70;;;;;;5129325;28;20053;-46
2022/04/01 10:59:24;;;;;;;6.32;2.67;;;6.60;65.70;;;;;;5131772;27;20030;-45
2022/04/01 11:01:53;;;;;;;8.80;3.13;;;6.50;67.60;;;;;;5108542;28;20039;-45
2022/04/01 11:04:18;;;;;;;9.10;4.07;;;6.60;66.60;;;;;;5107095;28;20518;-46
2022/04/01 11:06:51;;;;;;;5.93;2.42;;;6.70;66.50;;;;;;5108372;28;20099;-46
2022/04/01 11:09:32;;;;;;;6.22;3.40;;;6.70;68.20;;;;;;5107738;28;20024;-45
2022/04/01 11:12:16;;;;;;;5.28;2.90;;;6.70;71.00;;;;;;5107072;28;20023;-46
2022/04/01 11:14:59;;;;;;;7.68;2.92;;;6.80;65.40;;;;;;5110438;28;20399;-44
2022/04/01 11:17:25;;;;;;;10.93;2.88;;;6.80;67.40;;;;;;5111065;28;20019;-47
2022/04/01 11:20:13;;;;;;;8.07;3.20;;;6.90;66.40;;;;;;5111687;28;20545;-45
2022/04/01 11:22:54;;;;;;;6.05;2.67;;;6.70;64.00;;;;;;5112330;28;20055;-45
2022/04/01 11:25:22;;;;;;;6.38;2.75;;;6.60;64.50;;;;;;5112747;28;20038;-46
2022/04/01 11:28:09;;;;;;;4.85;3.28;;;6.70;63.40;;;;;;5121004;27;20022;-45
2022/04/01 11:30:40;;;;;;;4.28;2.72;;;6.60;64.00;;;;;;5144281;27;20015;-46
2022/04/01 11:33:35;;;;;;;6.90;3.30;;;6.60;63.50;;;;;;5153557;27;20170;-45
2022/04/01 11:36:01;;;;;;;5.35;3.30;;;6.90;63.20;;;;;;5135363;27;20425;-46
2022/04/01 11:38:29;;;;;;;9.27;3.45;;;6.80;62.90;;;;;;5151981;27;20023;-46
2022/04/01 11:41:00;;;;;;;6.68;3.83;;;7.00;61.10;;;;;;5152761;27;20026;-46
2022/04/01 11:43:26;;;;;;;;;;;7.00;61.90;;;;;;5153619;27;20023;-48
2022/04/01 11:45:57;;;;;;;7.22;3.15;;;7.20;60.20;;;;;;5151863;27;19910;-47
2022/04/01 11:48:26;;;;;;;10.50;3.35;;;7.30;59.40;;;;;;5153166;27;20663;-46
2022/04/01 11:50:55;;;;;;;8.98;3.28;;;7.30;61.40;;;;;;5152595;27;20052;-46
2022/04/01 11:53:47;;;;;;;9.35;3.45;;;7.30;59.60;;;;;;5153186;27;20058;-47
2022/04/01 11:56:14;;;;;;;5.72;2.83;;;7.40;60.00;;;;;;5152857;27;20022;-46
2022/04/01 11:58:56;;;;;;;6.47;3.10;;;7.50;58.50;;;;;;5138483;27;20023;-46
2022/04/01 12:01:25;;;;;;;6.85;2.78;;;7.30;58.60;;;;;;5148696;27;20075;-46
2022/04/01 12:03:59;;;;;;;6.22;2.75;;;7.50;58.50;;;;;;5152475;27;20530;-46
2022/04/01 12:09:09;;;;;;;7.38;3.05;;;7.40;57.80;;;;;;5152300;27;20029;-45
2022/04/01 12:11:42;;;;;;;9.48;3.20;;;7.50;58.40;;;;;;5152558;27;20645;-46
2022/04/01 12:14:08;;;;;;;9.63;3.70;;;7.70;58.40;;;;;;5152209;27;20196;-46
2022/04/01 12:16:41;;;;;;;9.38;3.03;;;7.60;58.30;;;;;;5152567;27;20027;-47
2022/04/01 12:19:13;;;;;;;6.63;3.60;;;7.80;59.50;;;;;;5151974;27;20505;-48
2022/04/01 12:21:39;;;;;;;4.82;3.35;;;7.80;58.70;;;;;;5152361;27;20061;-47
2022/04/01 12:24:05;;;;;;;6.38;2.58;;;7.90;58.30;;;;;;5152202;27;20050;-46
2022/04/01 12:26:30;;;;;;;8.32;2.72;;;7.90;58.30;;;;;;5151711;27;20106;-46
2022/04/01 12:28:56;;;;;;;3.95;2.42;;;8.00;59.80;;;;;;5138147;27;20579;-47
2022/04/01 12:31:25;;;;;;;13.38;3.10;;;8.10;58.00;;;;;;5149576;27;20101;-45
2022/04/01 12:33:53;;;;;;;7.72;2.72;;;8.10;56.50;;;;;;5152152;27;20526;-48
2022/04/01 12:36:36;;;;;;;8.48;2.72;;;8.10;56.80;;;;;;5152106;27;20030;-48
2022/04/01 12:39:11;;;;;;;7.15;2.33;;;8.40;57.10;;;;;;5151838;27;20023;-48
2022/04/01 12:42:19;;;;;;;9.23;2.60;;;8.50;57.50;;;;;;5152009;27;20475;-46
2022/04/01 12:44:45;;;;;;;6.28;2.42;;;8.50;55.80;;;;;;5150452;27;20022;-49
2022/04/01 12:47:12;;;;;;;7.90;2.53;;;8.40;57.00;;;;;;5151842;27;20018;-46
2022/04/01 12:49:42;;;;;;;6.20;2.53;;;8.40;57.10;;;;;;5151591;27;20015;-47
2022/04/01 12:52:14;;;;;;;5.25;2.50;;;8.30;55.40;;;;;;5152004;27;20014;-47
2022/04/01 12:54:42;;;;;;;11.27;2.65;;;8.30;59.90;;;;;;5150347;27;20023;-46
2022/04/01 12:57:10;;;;;;;7.20;2.60;;;8.10;55.10;;;;;;5146217;27;20528;-46
2022/04/01 12:59:40;;;;;;;4.47;1.60;;;8.30;57.00;;;;;;5140531;27;20559;-48
2022/04/01 13:02:14;;;;;;;7.32;2.38;;;8.30;55.30;;;;;;5151541;27;20075;-48
2022/04/01 13:04:49;;;;;;;11.50;2.53;;;8.20;55.40;;;;;;5151633;27;20111;-46
2022/04/01 13:07:31;;;;;;;5.70;2.40;;;8.20;57.10;;;;;;5151423;27;20522;-45
2022/04/01 13:09:58;;;;;;;6.50;2.40;;;8.20;55.30;;;;;;5150930;27;20030;-47
2022/04/01 13:12:39;;;;;;;5.20;2.15;;;8.30;56.00;;;;;;5151427;27;20026;-47
2022/04/01 13:15:10;;;;;;;6.63;2.83;;;8.30;54.40;;;;;;5151546;27;20023;-46
2022/04/01 13:17:59;;;;;;;8.43;2.35;;;8.50;53.90;;;;;;5151492;27;20031;-46
2022/04/01 13:20:26;;;;;;;8.55;2.45;;;8.30;55.20;;;;;;5150696;27;20025;-48
2022/04/01 13:22:52;;;;;;;8.27;2.53;;;8.20;54.70;;;;;;5150923;27;20019;-46
2022/04/01 13:25:18;;;;;;;7.25;2.78;;;8.10;55.00;;;;;;5151154;27;20060;-46